createdAt,value
2022-08-08T00:00:52.784Z,84.49
2022-08-08T00:00:53.524Z,84.08
2022-08-08T00:02:03.659Z,83.98
2022-08-08T00:02:48.628Z,84.49
2022-08-08T00:03:47.236Z,84.63
2022-08-08T00:04:49.505Z,84.63
2022-08-08T00:06:02.880Z,84.12
2022-08-08T00:06:47.188Z,84.63
2022-08-08T00:07:47.709Z,84.83
2022-08-08T00:08:49.180Z,84.83
2022-08-08T00:09:47.293Z,84.63
2022-08-08T00:10:46.755Z,84.53
2022-08-08T00:12:07.171Z,84.83
2022-08-08T00:12:56.353Z,84.53
2022-08-08T00:14:15.789Z,85.04
2022-08-08T00:14:57.220Z,85.14
2022-08-08T00:15:57.213Z,85.24
2022-08-08T00:16:49.194Z,84.57
2022-08-08T00:18:02.384Z,84.94
2022-08-08T00:18:49.389Z,84.77
2022-08-08T00:19:51.382Z,85.49
2022-08-08T00:20:49.423Z,84.77
2022-08-08T00:21:48.167Z,85.38
2022-08-08T00:22:46.234Z,85.49
2022-08-08T00:23:47.870Z,85.59
2022-08-08T00:24:48.706Z,85.69
2022-08-08T00:25:51.691Z,86.10
2022-08-08T00:26:50.165Z,85.69
2022-08-08T00:27:44.915Z,85.28
2022-08-08T00:28:44.988Z,85.53
2022-08-08T00:29:46.986Z,85.79
2022-08-08T00:30:45.152Z,86.00
2022-08-08T00:32:28.946Z,86.00
2022-08-08T00:32:46.215Z,86.85
2022-08-08T00:34:17.476Z,86.51
2022-08-08T00:34:46.224Z,86.51
2022-08-08T00:35:48.873Z,86.61
2022-08-08T00:36:47.675Z,86.51
2022-08-08T00:38:01.239Z,86.61
2022-08-08T00:38:51.798Z,86.61
2022-08-08T00:41:09.199Z,86.30
2022-08-08T00:41:12.597Z,86.71
2022-08-08T00:42:08.266Z,86.71
2022-08-08T00:42:46.552Z,86.71
2022-08-08T00:43:59.057Z,87.16
2022-08-08T00:44:47.683Z,86.96
2022-08-08T00:45:48.149Z,86.76
2022-08-08T00:46:57.062Z,86.96
2022-08-08T00:48:05.343Z,86.35
2022-08-08T00:48:59.427Z,86.85
2022-08-08T00:49:58.528Z,86.96
2022-08-08T00:50:53.303Z,86.44
2022-08-08T00:51:46.848Z,86.65
2022-08-08T00:52:51.677Z,86.55
2022-08-08T00:53:57.112Z,86.35
2022-08-08T00:54:45.977Z,86.76
2022-08-08T00:55:53.112Z,86.85
2022-08-08T00:56:46.687Z,87.88
2022-08-08T00:57:48.571Z,86.96
2022-08-08T00:58:54.483Z,87.06
2022-08-08T00:59:46.826Z,86.76
2022-08-08T01:00:50.169Z,87.06
2022-08-08T01:01:48.522Z,86.44
2022-08-08T01:04:01.626Z,87.71
2022-08-08T01:04:02.546Z,87.77
2022-08-08T01:04:47.575Z,88.33
2022-08-08T01:05:59.397Z,87.61
2022-08-08T01:06:48.123Z,87.57
2022-08-08T01:07:55.942Z,87.71
2022-08-08T01:08:51.942Z,88.33
2022-08-08T01:09:48.645Z,87.82
2022-08-08T01:10:50.852Z,87.65
2022-08-08T01:11:48.426Z,87.82
2022-08-08T01:12:48.179Z,88.94
2022-08-08T01:13:52.866Z,88.57
2022-08-08T01:14:54.778Z,88.37
2022-08-08T01:15:53.472Z,87.76
2022-08-08T01:16:46.679Z,87.85
2022-08-08T01:17:53.752Z,88.06
2022-08-08T01:18:52.782Z,88.47
2022-08-08T01:20:01.512Z,88.06
2022-08-08T01:20:47.282Z,88.98
2022-08-08T01:22:11.790Z,88.98
2022-08-08T01:29:59.899Z,89.03
2022-08-08T01:30:55.959Z,88.82
2022-08-08T01:32:12.889Z,89.03
2022-08-08T01:32:57.742Z,89.33
2022-08-08T01:34:00.485Z,90.72
2022-08-08T01:34:56.850Z,91.54
2022-08-08T01:36:01.283Z,90.52
2022-08-08T01:36:57.339Z,90.00
2022-08-08T01:37:59.008Z,89.39
2022-08-08T01:38:56.781Z,90.11
2022-08-08T01:39:56.953Z,89.80
2022-08-08T01:40:57.965Z,88.68
2022-08-08T01:41:58.032Z,88.88
2022-08-08T01:42:57.306Z,88.71
2022-08-08T01:43:59.932Z,89.33
2022-08-08T02:02:41.564Z,90.60
2022-08-08T02:03:54.401Z,91.42
2022-08-08T02:04:35.440Z,91.01
2022-08-08T02:05:56.568Z,91.31
2022-08-08T02:06:41.003Z,92.19
2022-08-08T02:07:41.590Z,92.40
2022-08-08T02:08:36.541Z,92.19
2022-08-08T02:10:02.478Z,91.89
2022-08-08T02:10:37.301Z,91.78
2022-08-08T02:11:53.065Z,92.15
2022-08-08T02:12:36.523Z,92.40
2022-08-08T02:13:54.809Z,91.38
2022-08-08T02:14:56.017Z,91.07
2022-08-08T02:15:38.612Z,90.39
2022-08-08T02:16:35.475Z,90.39
2022-08-08T02:17:42.526Z,90.50
2022-08-08T02:18:36.490Z,90.39
2022-08-08T02:19:57.967Z,90.91
2022-08-08T02:21:02.102Z,90.95
2022-08-08T02:21:36.451Z,90.54
2022-08-08T02:22:52.331Z,90.75
2022-08-08T02:23:36.421Z,90.64
2022-08-08T02:24:35.394Z,90.84
2022-08-08T02:25:47.223Z,90.84
2022-08-08T02:26:36.403Z,90.75
2022-08-08T02:27:38.849Z,90.84
2022-08-08T02:28:36.403Z,90.89
2022-08-08T02:29:46.995Z,90.79
2022-08-08T02:30:36.382Z,90.89
2022-08-08T02:31:59.199Z,91.30
2022-08-08T02:32:36.532Z,91.50
2022-08-08T02:33:41.462Z,91.40
2022-08-08T02:34:36.399Z,91.91
2022-08-08T02:35:35.808Z,92.06
2022-08-08T02:36:36.315Z,91.82
2022-08-08T02:37:53.359Z,92.22
2022-08-08T02:38:36.285Z,92.63
2022-08-08T02:39:40.415Z,92.12
2022-08-08T02:40:36.375Z,92.57
2022-08-08T02:42:04.058Z,92.57
2022-08-08T02:42:41.735Z,92.53
2022-08-08T02:44:38.062Z,92.06
2022-08-08T02:44:56.463Z,91.96
2022-08-08T02:45:51.672Z,92.47
2022-08-08T02:46:36.297Z,92.36
2022-08-08T02:47:35.205Z,92.47
2022-08-08T02:48:36.211Z,92.61
2022-08-08T02:49:50.469Z,92.72
2022-08-08T02:50:36.237Z,92.27
2022-08-08T02:51:46.463Z,92.98
2022-08-08T02:52:38.785Z,93.23
2022-08-08T02:53:35.282Z,92.93
2022-08-08T02:54:35.156Z,92.93
2022-08-08T02:55:36.508Z,93.13
2022-08-08T02:56:35.199Z,92.93
2022-08-08T02:57:40.681Z,93.13
2022-08-08T02:58:36.929Z,93.54
2022-08-08T02:59:57.130Z,95.07
2022-08-08T03:00:36.198Z,94.93
2022-08-08T03:01:39.912Z,95.49
2022-08-08T03:02:36.775Z,95.75
2022-08-08T03:05:01.157Z,95.79
2022-08-08T03:05:04.802Z,95.95
2022-08-08T03:05:45.482Z,95.49
2022-08-08T03:06:36.072Z,95.44
2022-08-08T03:07:41.814Z,95.69
2022-08-08T03:08:36.107Z,94.83
2022-08-08T03:09:35.075Z,94.05
2022-08-08T03:10:36.932Z,94.15
2022-08-08T03:12:01.695Z,94.15
2022-08-08T03:13:01.119Z,94.26
2022-08-08T03:15:58.627Z,93.64
2022-08-08T03:15:59.845Z,93.44
2022-08-08T03:16:01.859Z,93.74
2022-08-08T03:16:37.220Z,94.05
2022-08-08T03:17:39.498Z,94.05
2022-08-08T03:18:34.974Z,93.85
2022-08-08T03:19:34.997Z,93.64
2022-08-08T03:20:34.975Z,93.95
2022-08-08T03:21:54.606Z,93.74
2022-08-08T03:22:38.651Z,93.54
2022-08-08T03:23:56.341Z,93.54
2022-08-08T03:24:35.966Z,93.44
2022-08-08T03:25:36.280Z,93.59
2022-08-08T03:26:42.599Z,93.59
2022-08-08T03:27:41.971Z,93.59
2022-08-08T03:28:35.947Z,93.68
2022-08-08T03:29:54.868Z,93.59
2022-08-08T03:30:35.904Z,93.27
2022-08-08T03:32:05.236Z,93.68
2022-08-08T03:32:35.884Z,94.40
2022-08-08T03:34:00.587Z,94.30
2022-08-08T03:34:37.770Z,94.51
2022-08-08T03:35:34.869Z,94.30
2022-08-08T03:36:34.888Z,94.20
2022-08-08T03:38:53.874Z,94.81
2022-08-08T03:38:57.781Z,94.10
2022-08-08T03:39:46.068Z,94.10
2022-08-08T03:40:37.016Z,94.40
2022-08-08T03:42:13.061Z,93.89
2022-08-08T03:42:35.899Z,94.30
2022-08-08T03:43:39.734Z,94.14
2022-08-08T03:44:35.768Z,93.79
2022-08-08T03:46:05.287Z,94.10
2022-08-08T04:02:12.748Z,95.36
2022-08-08T04:02:52.073Z,95.87
2022-08-08T04:03:58.640Z,95.97
2022-08-08T04:04:48.497Z,95.46
2022-08-08T04:05:50.086Z,96.44
2022-08-08T04:06:47.433Z,96.03
2022-08-08T04:07:47.433Z,95.93
2022-08-08T04:08:47.433Z,96.03
2022-08-08T04:10:00.411Z,95.72
2022-08-08T04:10:49.065Z,95.89
2022-08-08T04:11:58.699Z,94.96
2022-08-08T04:13:17.816Z,95.37
2022-08-08T04:14:17.285Z,95.78
2022-08-08T04:14:50.747Z,95.17
2022-08-08T04:15:54.420Z,94.85
2022-08-08T04:16:49.310Z,94.96
2022-08-08T04:17:58.851Z,94.10
2022-08-08T04:18:48.695Z,94.45
2022-08-08T04:19:47.343Z,93.83
2022-08-08T04:20:47.361Z,93.93
2022-08-08T04:21:47.346Z,94.34
2022-08-08T04:22:51.617Z,94.51
2022-08-08T04:24:05.233Z,94.20
2022-08-08T04:24:50.062Z,95.02
2022-08-08T04:25:47.347Z,94.77
2022-08-08T04:26:57.241Z,94.21
2022-08-08T04:28:35.562Z,93.92
2022-08-08T04:28:48.259Z,92.44
2022-08-08T04:29:55.294Z,90.41
2022-08-08T04:30:48.256Z,88.90
2022-08-08T04:31:59.854Z,87.84
2022-08-08T04:32:49.839Z,85.41
2022-08-08T04:33:47.231Z,84.96
2022-08-08T04:34:55.330Z,83.18
2022-08-08T04:35:50.785Z,82.29
2022-08-08T04:36:47.241Z,81.13
2022-08-08T04:37:47.193Z,80.32
2022-08-08T04:38:47.399Z,79.77
2022-08-08T04:40:03.928Z,80.38
2022-08-08T04:40:51.388Z,79.33
2022-08-08T04:41:48.167Z,78.72
2022-08-08T04:42:56.995Z,78.28
2022-08-08T04:43:53.941Z,77.33
2022-08-08T04:44:49.151Z,76.88
2022-08-08T04:45:47.205Z,76.34
2022-08-08T04:46:47.190Z,75.73
2022-08-08T04:47:48.122Z,73.83
2022-08-08T04:48:47.124Z,74.34
2022-08-08T04:50:00.415Z,73.60
2022-08-08T04:50:48.130Z,73.12
2022-08-08T04:51:54.895Z,72.48
2022-08-08T04:52:48.496Z,71.16
2022-08-08T04:54:36.619Z,70.96
2022-08-08T04:54:50.745Z,71.26
2022-08-08T04:55:56.272Z,71.23
2022-08-08T04:56:48.074Z,71.33
2022-08-08T04:57:47.100Z,70.93
2022-08-08T04:58:50.338Z,70.83
2022-08-08T04:59:47.039Z,69.89
2022-08-08T05:00:48.493Z,70.96
2022-08-08T05:01:48.634Z,71.57
2022-08-08T05:02:47.085Z,71.67
2022-08-08T05:04:10.768Z,70.66
2022-08-08T05:04:48.260Z,69.42
2022-08-08T05:06:53.576Z,67.02
2022-08-08T05:07:53.576Z,66.69
2022-08-08T05:08:54.728Z,66.62
2022-08-08T05:09:54.688Z,67.83
2022-08-08T05:10:54.687Z,65.95
2022-08-08T05:11:57.035Z,67.13
2022-08-08T05:13:01.888Z,69.55
2022-08-08T05:14:00.949Z,69.34
2022-08-08T05:14:55.645Z,70.52
2022-08-08T05:16:52.549Z,70.79
2022-08-08T05:17:01.451Z,69.85
2022-08-08T05:17:56.639Z,68.91
2022-08-08T05:18:55.200Z,68.98
2022-08-08T05:20:12.960Z,68.30
2022-08-08T05:20:55.616Z,66.86
2022-08-08T05:21:59.611Z,66.66
2022-08-08T05:22:55.583Z,67.23
2022-08-08T05:24:04.184Z,69.11
2022-08-08T05:24:55.595Z,69.75
2022-08-08T05:25:59.832Z,71.50
2022-08-08T05:26:56.573Z,71.53
2022-08-08T05:27:54.930Z,71.20
2022-08-08T05:28:57.371Z,71.23
2022-08-08T05:29:56.532Z,68.77
2022-08-08T05:30:54.589Z,69.08
2022-08-08T05:32:03.896Z,68.48
2022-08-08T05:32:55.521Z,65.56
2022-08-08T05:33:55.197Z,64.79
2022-08-08T05:34:54.552Z,62.72
2022-08-08T05:35:55.354Z,62.82
2022-08-08T05:36:56.465Z,62.79
2022-08-08T05:37:54.795Z,62.36
2022-08-08T05:38:54.471Z,61.58
2022-08-08T05:39:54.566Z,61.38
2022-08-08T05:40:57.906Z,61.72
2022-08-08T05:41:55.935Z,60.19
2022-08-08T05:42:54.440Z,59.36
2022-08-08T05:44:03.376Z,60.62
2022-08-08T05:44:57.347Z,60.96
2022-08-08T05:46:03.322Z,63.39
2022-08-08T05:46:55.398Z,66.02
2022-08-08T05:48:00.529Z,67.23
2022-08-08T05:48:55.451Z,66.96
2022-08-08T05:49:56.036Z,68.84
2022-08-08T05:50:58.688Z,69.85
2022-08-08T05:51:55.416Z,68.88
2022-08-08T05:52:54.359Z,67.33
2022-08-08T05:54:26.747Z,67.40
2022-08-08T05:55:01.007Z,66.16
2022-08-08T05:56:07.989Z,65.12
2022-08-08T05:56:55.398Z,64.46
2022-08-08T05:58:04.867Z,64.72
2022-08-08T05:58:58.044Z,65.66
2022-08-08T06:00:00.575Z,67.00
2022-08-08T06:00:57.060Z,67.33
2022-08-08T06:01:57.257Z,66.93
2022-08-08T06:02:54.338Z,66.60
2022-08-08T06:03:55.576Z,65.56
2022-08-08T06:04:54.859Z,64.19
2022-08-08T06:05:56.797Z,64.69
2022-08-08T06:06:56.688Z,63.02
2022-08-08T06:08:02.655Z,63.93
2022-08-08T06:09:00.446Z,62.06
2022-08-08T06:10:00.831Z,61.40
2022-08-08T06:10:55.215Z,60.22
2022-08-08T06:11:55.220Z,60.82
2022-08-08T06:12:54.392Z,60.49
2022-08-08T06:13:58.393Z,60.86
2022-08-08T06:14:57.789Z,60.33
2022-08-08T06:15:56.274Z,59.08
2022-08-08T06:16:54.293Z,57.59
2022-08-08T06:18:18.450Z,57.57
2022-08-08T06:18:55.382Z,56.14
2022-08-08T06:19:54.257Z,55.54
2022-08-08T06:20:56.270Z,56.07
2022-08-08T06:21:56.682Z,55.94
2022-08-08T06:22:56.328Z,55.49
2022-08-08T06:24:03.638Z,54.44
2022-08-08T06:24:55.139Z,54.14
2022-08-08T06:26:35.674Z,55.11
2022-08-08T06:26:55.124Z,56.77
2022-08-08T06:27:54.104Z,56.99
2022-08-08T06:28:54.369Z,57.46
2022-08-08T06:30:00.197Z,56.31
2022-08-08T06:30:55.133Z,55.62
2022-08-08T06:32:09.943Z,55.09
2022-08-08T06:32:55.059Z,55.29
2022-08-08T06:34:26.474Z,57.76
2022-08-08T06:35:11.591Z,56.27
2022-08-08T06:36:07.037Z,57.35
2022-08-08T06:36:55.032Z,58.70
2022-08-08T06:37:55.760Z,59.31
2022-08-08T06:38:54.027Z,57.69
2022-08-08T06:39:55.949Z,57.19
2022-08-08T06:40:54.740Z,57.69
2022-08-08T06:41:54.040Z,57.12
2022-08-08T06:42:54.057Z,57.65
2022-08-08T06:43:57.518Z,56.70
2022-08-08T06:44:53.993Z,56.07
2022-08-08T06:45:54.023Z,55.91
2022-08-08T06:46:54.018Z,54.36
2022-08-08T06:48:01.426Z,54.69
2022-08-08T06:48:54.939Z,55.62
2022-08-08T06:49:55.757Z,57.22
2022-08-08T06:51:04.293Z,58.45
2022-08-08T06:51:58.213Z,58.37
2022-08-08T06:52:53.974Z,57.59
2022-08-08T06:53:56.127Z,55.16
2022-08-08T06:55:05.978Z,53.96
2022-08-08T06:56:02.308Z,54.27
2022-08-08T06:56:54.929Z,53.59
2022-08-08T06:57:56.439Z,52.17
2022-08-08T06:58:57.531Z,51.52
2022-08-08T07:00:13.022Z,49.81
2022-08-08T07:00:54.747Z,49.21
2022-08-08T07:02:21.275Z,47.88
2022-08-08T07:02:55.947Z,47.66
2022-08-08T07:04:40.653Z,47.34
2022-08-08T07:04:54.920Z,47.85
2022-08-08T07:06:01.663Z,50.10
2022-08-08T07:06:54.830Z,51.57
2022-08-08T07:07:55.338Z,52.94
2022-08-08T07:08:54.849Z,55.29
2022-08-08T07:10:00.021Z,54.22
2022-08-08T07:10:54.804Z,53.04
2022-08-08T07:11:53.944Z,51.70
2022-08-08T07:12:53.788Z,52.00
2022-08-08T07:14:00.593Z,52.59
2022-08-08T07:14:54.823Z,53.66
2022-08-08T07:16:10.025Z,53.59
2022-08-08T07:16:54.792Z,53.99
2022-08-08T07:18:34.449Z,52.44
2022-08-08T07:18:58.124Z,51.70
2022-08-08T07:19:59.955Z,51.67
2022-08-08T07:20:54.766Z,51.89
2022-08-08T07:21:53.765Z,52.44
2022-08-08T07:22:55.533Z,52.72
2022-08-08T07:24:01.198Z,52.04
2022-08-08T07:24:54.712Z,52.27
2022-08-08T07:25:55.596Z,53.09
2022-08-08T07:26:53.708Z,53.19
2022-08-08T07:28:02.145Z,52.59
2022-08-08T07:28:56.416Z,53.97
2022-08-08T07:29:59.610Z,53.89
2022-08-08T07:30:54.801Z,51.72
2022-08-08T07:31:53.710Z,49.88
2022-08-08T07:32:53.647Z,49.78
2022-08-08T07:33:59.683Z,50.65
2022-08-08T07:35:00.618Z,50.65
2022-08-08T07:35:54.639Z,50.45
2022-08-08T07:36:53.671Z,49.90
2022-08-08T07:38:04.293Z,51.29
2022-08-08T07:38:54.639Z,49.76
2022-08-08T07:39:57.806Z,49.88
2022-08-08T07:40:54.600Z,50.38
2022-08-08T07:42:04.562Z,50.40
2022-08-08T07:42:54.613Z,50.62
2022-08-08T07:43:54.338Z,49.98
2022-08-08T07:44:53.563Z,50.50
2022-08-08T07:46:23.136Z,50.43
2022-08-08T07:46:54.552Z,50.52
2022-08-08T07:47:53.587Z,51.22
2022-08-08T07:48:53.744Z,50.52
2022-08-08T07:49:53.543Z,50.65
2022-08-08T07:50:53.536Z,51.25
2022-08-08T07:51:54.112Z,50.10
2022-08-08T07:52:53.530Z,50.27
2022-08-08T07:54:01.999Z,49.85
2022-08-08T07:54:54.492Z,50.13
2022-08-08T07:55:53.501Z,51.27
2022-08-08T07:56:53.490Z,50.68
2022-08-08T07:57:53.529Z,49.85
2022-08-08T07:58:53.475Z,49.63
2022-08-08T07:59:53.458Z,49.23
2022-08-08T08:00:53.582Z,47.77
2022-08-08T08:02:36.712Z,47.65
2022-08-08T08:02:54.529Z,47.60
2022-08-08T08:03:53.604Z,46.98
2022-08-08T08:04:53.445Z,46.81
2022-08-08T08:05:53.923Z,47.77
2022-08-08T08:06:53.432Z,47.10
2022-08-08T08:07:57.279Z,48.10
2022-08-08T08:08:54.389Z,48.52
2022-08-08T08:09:55.512Z,48.37
2022-08-08T08:10:53.406Z,47.77
2022-08-08T08:11:53.803Z,47.35
2022-08-08T08:12:53.510Z,47.23
2022-08-08T08:14:08.328Z,47.55
2022-08-08T08:14:54.398Z,47.13
2022-08-08T08:15:54.276Z,46.39
2022-08-08T08:16:53.337Z,46.07
2022-08-08T08:17:56.565Z,46.22
2022-08-08T08:18:56.122Z,46.24
2022-08-08T08:19:55.742Z,46.42
2022-08-08T08:20:53.343Z,45.40
2022-08-08T08:21:58.431Z,45.23
2022-08-08T08:22:58.411Z,46.39
2022-08-08T08:23:53.290Z,45.52
2022-08-08T08:24:54.300Z,45.70
2022-08-08T08:25:58.253Z,46.51
2022-08-08T08:26:55.305Z,46.39
2022-08-08T08:27:53.266Z,46.15
2022-08-08T08:28:55.936Z,45.70
2022-08-08T08:29:53.446Z,46.95
2022-08-08T08:30:53.276Z,47.60
2022-08-08T08:31:57.371Z,47.45
2022-08-08T08:32:54.398Z,47.08
2022-08-08T08:33:53.248Z,46.98
2022-08-08T08:34:56.789Z,46.86
2022-08-08T08:36:19.381Z,46.53
2022-08-08T08:36:54.788Z,46.88
2022-08-08T08:38:15.857Z,46.42
2022-08-08T08:38:55.199Z,45.57
2022-08-08T08:40:00.875Z,46.51
2022-08-08T08:40:56.863Z,45.60
2022-08-08T08:41:53.168Z,45.20
2022-08-08T08:42:53.229Z,46.53
2022-08-08T08:43:53.154Z,45.92
2022-08-08T08:44:54.155Z,46.66
2022-08-08T08:45:57.130Z,46.44
2022-08-08T08:46:58.757Z,46.64
2022-08-08T08:47:58.707Z,46.42
2022-08-08T08:48:53.149Z,46.26
2022-08-08T08:49:59.788Z,46.88
2022-08-08T08:50:55.433Z,47.13
2022-08-08T08:51:56.297Z,45.72
2022-08-08T08:52:59.860Z,46.56
2022-08-08T08:54:00.872Z,47.01
2022-08-08T08:54:56.820Z,46.89
2022-08-08T08:55:53.920Z,45.28
2022-08-08T08:56:55.817Z,45.28
2022-08-08T08:58:25.982Z,44.05
2022-08-08T08:58:53.017Z,45.08
2022-08-08T08:59:58.603Z,44.90
2022-08-08T09:01:08.771Z,44.16
2022-08-08T09:01:55.912Z,42.43
2022-08-08T09:03:45.482Z,44.05
2022-08-08T09:03:54.829Z,43.67
2022-08-08T09:04:54.937Z,43.85
2022-08-08T09:05:54.840Z,42.21
2022-08-08T09:06:52.994Z,41.28
2022-08-08T09:08:12.168Z,41.08
2022-08-08T09:08:53.980Z,42.08
2022-08-08T09:09:55.078Z,42.43
2022-08-08T09:10:52.949Z,42.35
2022-08-08T09:12:06.101Z,42.60
2022-08-08T09:12:53.944Z,42.08
2022-08-08T09:13:53.632Z,41.00
2022-08-08T09:14:52.930Z,41.06
2022-08-08T09:15:52.928Z,40.56
2022-08-08T09:16:53.928Z,40.33
2022-08-08T09:17:56.002Z,41.04
2022-08-08T09:18:53.762Z,41.17
2022-08-08T09:21:58.981Z,40.61
2022-08-08T09:22:00.859Z,40.84
2022-08-08T09:22:05.896Z,40.55
2022-08-08T09:22:58.403Z,39.40
2022-08-08T09:23:54.858Z,40.50
2022-08-08T09:24:53.888Z,40.90
2022-08-08T09:26:01.985Z,39.50
2022-08-08T09:26:53.852Z,39.36
2022-08-08T09:27:58.072Z,38.26
2022-08-08T09:28:53.859Z,39.06
2022-08-08T09:29:52.963Z,39.32
2022-08-08T09:30:52.821Z,39.16
2022-08-08T09:31:55.940Z,41.28
2022-08-08T09:33:12.458Z,40.31
2022-08-08T09:34:30.587Z,39.38
2022-08-08T09:34:53.818Z,37.07
2022-08-08T09:35:52.785Z,37.14
2022-08-08T09:37:46.314Z,36.66
2022-08-08T09:38:00.826Z,37.35
2022-08-08T09:38:54.215Z,36.45
2022-08-08T09:39:52.903Z,36.70
2022-08-08T09:40:57.462Z,38.73
2022-08-08T09:42:15.180Z,39.11
2022-08-08T09:42:53.724Z,38.08
2022-08-08T09:44:05.303Z,37.35
2022-08-08T09:44:54.560Z,37.15
2022-08-08T09:45:55.057Z,38.83
2022-08-08T09:46:57.425Z,37.37
2022-08-08T09:48:09.694Z,37.47
2022-08-08T09:48:53.745Z,37.35
2022-08-08T09:49:52.706Z,37.55
2022-08-08T09:50:54.968Z,37.43
2022-08-08T09:52:07.419Z,37.45
2022-08-08T09:52:59.434Z,36.74
2022-08-08T09:54:06.902Z,37.04
2022-08-08T09:54:53.663Z,37.59
2022-08-08T09:56:04.115Z,38.43
2022-08-08T09:56:53.630Z,38.73
2022-08-08T09:57:55.901Z,38.18
2022-08-08T09:58:52.606Z,37.22
2022-08-08T10:00:29.937Z,36.77
2022-08-08T10:00:56.932Z,35.78
2022-08-08T10:01:59.505Z,35.61
2022-08-08T10:02:54.441Z,35.88
2022-08-08T10:03:55.808Z,35.57
2022-08-08T10:04:52.830Z,37.46
2022-08-08T10:05:52.642Z,38.86
2022-08-08T10:06:52.806Z,38.43
2022-08-08T10:07:59.949Z,38.63
2022-08-08T10:08:53.578Z,37.96
2022-08-08T10:09:59.478Z,36.92
2022-08-08T10:10:53.547Z,36.84
2022-08-08T10:12:27.834Z,37.29
2022-08-08T10:13:30.049Z,38.29
2022-08-08T10:13:57.474Z,38.02
2022-08-08T10:14:52.500Z,38.31
2022-08-08T10:16:00.547Z,37.39
2022-08-08T10:16:53.512Z,36.36
2022-08-08T10:18:06.503Z,36.55
2022-08-08T10:18:55.470Z,37.14
2022-08-08T10:19:58.311Z,37.14
2022-08-08T10:21:00.608Z,36.53
2022-08-08T10:21:53.475Z,36.15
2022-08-08T10:22:52.454Z,35.61
2022-08-08T10:23:58.246Z,35.87
2022-08-08T10:24:54.438Z,34.16
2022-08-08T10:25:57.015Z,34.06
2022-08-08T10:26:59.528Z,36.71
2022-08-08T10:27:53.432Z,36.40
2022-08-08T10:28:53.893Z,35.49
2022-08-08T10:29:58.384Z,35.77
2022-08-08T10:30:59.717Z,35.59
2022-08-08T10:31:53.397Z,35.02
2022-08-08T10:32:53.301Z,35.30
2022-08-08T10:34:19.010Z,35.39
2022-08-08T10:35:00.299Z,35.31
2022-08-08T10:36:08.622Z,35.71
2022-08-08T10:36:53.333Z,36.80
2022-08-08T10:37:52.338Z,36.22
2022-08-08T10:38:52.358Z,35.90
2022-08-08T10:39:54.055Z,35.64
2022-08-08T10:40:53.278Z,35.33
2022-08-08T10:41:58.864Z,35.33
2022-08-08T10:42:53.305Z,34.99
2022-08-08T10:43:52.876Z,35.43
2022-08-08T10:44:52.326Z,35.76
2022-08-08T10:45:57.112Z,37.26
2022-08-08T10:46:53.310Z,36.77
2022-08-08T10:47:55.189Z,37.07
2022-08-08T10:48:57.103Z,35.91
2022-08-08T10:50:01.369Z,36.19
2022-08-08T10:50:53.304Z,35.77
2022-08-08T10:51:52.994Z,35.61
2022-08-08T10:52:52.261Z,36.00
2022-08-08T10:53:56.642Z,35.40
2022-08-08T10:54:53.237Z,35.88
2022-08-08T10:55:52.232Z,35.86
2022-08-08T10:56:52.204Z,35.33
2022-08-08T10:57:53.247Z,33.92
2022-08-08T10:58:54.889Z,34.01
2022-08-08T10:59:52.214Z,34.64
2022-08-08T11:01:01.856Z,34.87
2022-08-08T11:01:54.958Z,35.15
2022-08-08T11:02:52.181Z,34.74
2022-08-08T11:04:00.716Z,34.72
2022-08-08T11:04:54.105Z,34.22
2022-08-08T11:06:00.382Z,35.11
2022-08-08T11:06:53.239Z,35.20
2022-08-08T11:08:37.869Z,35.20
2022-08-08T11:08:53.929Z,34.74
2022-08-08T11:09:52.143Z,35.64
2022-08-08T11:10:52.113Z,35.74
2022-08-08T11:12:05.024Z,35.86
2022-08-08T11:13:06.669Z,36.80
2022-08-08T11:13:59.816Z,36.90
2022-08-08T11:14:53.089Z,36.21
2022-08-08T11:15:59.027Z,35.77
2022-08-08T11:16:53.100Z,35.18
2022-08-08T11:17:58.195Z,34.66
2022-08-08T11:18:53.090Z,33.87
2022-08-08T11:19:52.860Z,34.39
2022-08-08T11:20:52.266Z,35.88
2022-08-08T11:21:55.213Z,35.50
2022-08-08T11:22:52.890Z,35.73
2022-08-08T11:24:02.125Z,35.50
2022-08-08T11:24:53.042Z,34.58
2022-08-08T11:25:57.398Z,34.08
2022-08-08T11:26:56.488Z,34.20
2022-08-08T11:27:52.017Z,34.67
2022-08-08T11:28:51.993Z,33.56
2022-08-08T11:30:20.522Z,33.25
2022-08-08T11:30:53.101Z,32.56
2022-08-08T11:31:52.015Z,33.23
2022-08-08T11:32:52.962Z,33.31
2022-08-08T11:33:59.501Z,32.95
2022-08-08T11:35:08.876Z,33.91
2022-08-08T11:35:53.970Z,34.64
2022-08-08T11:36:51.937Z,35.04
2022-08-08T11:38:39.056Z,34.33
2022-08-08T11:38:54.963Z,34.72
2022-08-08T11:39:57.351Z,35.22
2022-08-08T11:40:53.084Z,35.50
2022-08-08T11:41:52.943Z,34.79
2022-08-08T11:42:51.904Z,33.56
2022-08-08T11:43:51.924Z,34.01
2022-08-08T11:44:51.931Z,33.29
2022-08-08T11:46:10.005Z,32.41
2022-08-08T11:46:54.346Z,33.39
2022-08-08T11:48:02.796Z,33.00
2022-08-08T11:48:52.919Z,32.31
2022-08-08T11:49:51.849Z,33.08
2022-08-08T11:50:52.546Z,32.72
2022-08-08T11:51:52.451Z,34.25
2022-08-08T11:52:51.880Z,34.27
2022-08-08T11:53:59.123Z,34.56
2022-08-08T11:54:52.847Z,34.17
2022-08-08T11:55:51.816Z,35.38
2022-08-08T11:56:56.450Z,35.63
2022-08-08T11:57:54.927Z,35.79
2022-08-08T11:58:54.914Z,33.97
2022-08-08T12:00:00.613Z,34.13
2022-08-08T12:00:53.547Z,33.25
2022-08-08T12:01:51.784Z,34.72
2022-08-08T12:02:52.814Z,35.73
2022-08-08T12:03:54.955Z,34.43
2022-08-08T12:04:52.773Z,35.83
2022-08-08T12:05:51.762Z,35.52
2022-08-08T12:06:51.731Z,34.20
2022-08-08T12:07:51.994Z,34.48
2022-08-08T12:08:51.743Z,33.77
2022-08-08T12:09:59.511Z,33.56
2022-08-08T12:10:52.705Z,33.46
2022-08-08T12:11:51.701Z,33.36
2022-08-08T12:12:54.577Z,33.28
2022-08-08T12:14:03.830Z,33.91
2022-08-08T12:14:54.703Z,34.59
2022-08-08T12:15:51.679Z,33.84
2022-08-08T12:16:51.718Z,34.31
2022-08-08T12:17:52.473Z,34.28
2022-08-08T12:18:51.665Z,34.05
2022-08-08T12:19:54.011Z,33.34
2022-08-08T12:20:53.307Z,32.51
2022-08-08T12:22:00.267Z,33.39
2022-08-08T12:22:53.192Z,33.69
2022-08-08T12:24:00.185Z,33.89
2022-08-08T12:24:56.195Z,34.18
2022-08-08T12:25:52.809Z,33.29
2022-08-08T12:26:51.596Z,33.20
2022-08-08T12:27:52.589Z,33.69
2022-08-08T12:28:52.589Z,33.80
2022-08-08T12:29:51.617Z,33.92
2022-08-08T12:30:51.605Z,34.51
2022-08-08T12:31:53.143Z,33.53
2022-08-08T12:32:51.555Z,34.25
2022-08-08T12:34:02.151Z,34.61
2022-08-08T12:34:53.853Z,34.41
2022-08-08T12:35:53.239Z,34.10
2022-08-08T12:36:51.546Z,33.12
2022-08-08T12:38:02.758Z,33.80
2022-08-08T12:38:55.527Z,33.43
2022-08-08T12:40:01.898Z,34.34
2022-08-08T12:40:56.536Z,34.46
2022-08-08T12:41:57.277Z,33.97
2022-08-08T12:42:52.545Z,34.74
2022-08-08T12:43:59.957Z,33.98
2022-08-08T12:44:52.480Z,34.48
2022-08-08T12:46:00.097Z,36.05
2022-08-08T12:46:54.999Z,34.87
2022-08-08T12:48:04.988Z,35.05
2022-08-08T12:49:20.698Z,34.25
2022-08-08T12:49:53.486Z,33.54
2022-08-08T12:50:51.461Z,33.54
2022-08-08T12:51:58.516Z,34.34
2022-08-08T12:52:52.465Z,33.84
2022-08-08T12:53:51.413Z,34.63
2022-08-08T12:54:51.416Z,33.94
2022-08-08T12:56:18.370Z,33.64
2022-08-08T12:56:53.407Z,33.56
2022-08-08T12:57:56.810Z,33.65
2022-08-08T12:58:54.453Z,34.44
2022-08-08T13:00:04.444Z,35.64
2022-08-08T13:00:52.398Z,33.58
2022-08-08T13:01:51.491Z,34.31
2022-08-08T13:02:53.162Z,35.40
2022-08-08T13:03:52.090Z,35.31
2022-08-08T13:04:51.455Z,35.50
2022-08-08T13:06:04.387Z,35.46
2022-08-08T13:06:52.353Z,35.46
2022-08-08T13:08:03.580Z,35.13
2022-08-08T13:08:53.524Z,33.64
2022-08-08T13:10:05.339Z,34.64
2022-08-08T13:10:56.893Z,34.25
2022-08-08T13:12:24.507Z,34.84
2022-08-08T13:12:52.299Z,33.75
2022-08-08T13:13:51.328Z,34.25
2022-08-08T13:14:52.922Z,34.05
2022-08-08T13:15:54.741Z,34.41
2022-08-08T13:16:51.274Z,33.59
2022-08-08T13:18:08.480Z,33.61
2022-08-08T13:18:57.365Z,33.95
2022-08-08T13:20:06.733Z,35.91
2022-08-08T13:20:52.364Z,35.89
2022-08-08T13:21:58.389Z,36.22
2022-08-08T13:23:26.926Z,36.85
2022-08-08T13:23:52.222Z,37.11
2022-08-08T13:24:51.239Z,35.79
2022-08-08T13:25:59.375Z,35.99
2022-08-08T13:26:54.965Z,36.11
2022-08-08T13:27:51.505Z,36.58
2022-08-08T13:28:51.187Z,35.48
2022-08-08T13:29:51.189Z,35.56
2022-08-08T13:30:51.377Z,35.77
2022-08-08T13:31:51.216Z,36.17
2022-08-08T13:32:51.161Z,36.07